sensor_id;sensor_type;location;lat;lon;timestamp;P1;durP1;ratioP1;P2;durP2;ratioP2
23716;SDS011;22094;52.130;5.598;2022-11-27T00:01:46;23.52;;;10.18;;
23716;SDS011;22094;52.130;5.598;2022-11-27T00:04:12;31.35;;;10.82;;
23716;SDS011;22094;52.130;5.598;2022-11-27T00:06:38;27.60;;;10.63;;
23716;SDS011;22094;52.130;5.598;2022-11-27T00:09:06;26.20;;;10.35;;
23716;SDS011;22094;52.130;5.598;2022-11-27T00:11:33;33.40;;;11.13;;
23716;SDS011;22094;52.130;5.598;2022-11-27T00:13:59;27.92;;;11.88;;
23716;SDS011;22094;52.130;5.598;2022-11-27T00:16:25;28.83;;;11.48;;
23716;SDS011;22094;52.130;5.598;2022-11-27T00:18:52;28.15;;;10.68;;
23716;SDS011;22094;52.130;5.598;2022-11-27T00:21:19;29.02;;;11.25;;
23716;SDS011;22094;52.130;5.598;2022-11-27T00:23:48;31.13;;;12.27;;
23716;SDS011;22094;52.130;5.598;2022-11-27T00:26:14;31.67;;;10.85;;
23716;SDS011;22094;52.130;5.598;2022-11-27T00:28:40;28.52;;;9.95;;
23716;SDS011;22094;52.130;5.598;2022-11-27T00:31:07;27.42;;;10.38;;
23716;SDS011;22094;52.130;5.598;2022-11-27T00:33:43;31.15;;;11.45;;
23716;SDS011;22094;52.130;5.598;2022-11-27T00:36:09;27.00;;;11.20;;
23716;SDS011;22094;52.130;5.598;2022-11-27T00:38:36;25.33;;;9.55;;
23716;SDS011;22094;52.130;5.598;2022-11-27T00:41:08;30.52;;;9.90;;
23716;SDS011;22094;52.130;5.598;2022-11-27T00:43:34;27.90;;;9.57;;
23716;SDS011;22094;52.130;5.598;2022-11-27T00:46:00;26.58;;;9.80;;
23716;SDS011;22094;52.130;5.598;2022-11-27T00:48:26;24.98;;;9.93;;
23716;SDS011;22094;52.130;5.598;2022-11-27T00:50:52;22.02;;;9.20;;
23716;SDS011;22094;52.130;5.598;2022-11-27T00:53:33;20.00;;;8.73;;
23716;SDS011;22094;52.130;5.598;2022-11-27T00:55:58;28.95;;;9.85;;
23716;SDS011;22094;52.130;5.598;2022-11-27T00:58:25;26.40;;;8.82;;
23716;SDS011;22094;52.130;5.598;2022-11-27T01:01:25;27.08;;;8.88;;
23716;SDS011;22094;52.130;5.598;2022-11-27T01:03:45;26.70;;;9.50;;
23716;SDS011;22094;52.130;5.598;2022-11-27T01:06:11;29.83;;;9.48;;
23716;SDS011;22094;52.130;5.598;2022-11-27T01:08:38;22.33;;;9.23;;
23716;SDS011;22094;52.130;5.598;2022-11-27T01:11:04;25.85;;;9.30;;
23716;SDS011;22094;52.130;5.598;2022-11-27T01:13:34;20.10;;;8.98;;
23716;SDS011;22094;52.130;5.598;2022-11-27T01:16:01;24.00;;;9.48;;
23716;SDS011;22094;52.130;5.598;2022-11-27T01:18:29;30.33;;;9.93;;
23716;SDS011;22094;52.130;5.598;2022-11-27T01:20:55;22.25;;;9.23;;
23716;SDS011;22094;52.130;5.598;2022-11-27T01:23:20;29.95;;;9.63;;
23716;SDS011;22094;52.130;5.598;2022-11-27T01:25:47;27.58;;;10.20;;
23716;SDS011;22094;52.130;5.598;2022-11-27T01:28:13;30.13;;;9.30;;
23716;SDS011;22094;52.130;5.598;2022-11-27T01:30:40;26.13;;;10.13;;
23716;SDS011;22094;52.130;5.598;2022-11-27T01:33:05;24.45;;;9.75;;
23716;SDS011;22094;52.130;5.598;2022-11-27T01:35:31;21.38;;;9.45;;
23716;SDS011;22094;52.130;5.598;2022-11-27T01:37:57;22.13;;;8.80;;
23716;SDS011;22094;52.130;5.598;2022-11-27T01:40:22;29.33;;;9.80;;
23716;SDS011;22094;52.130;5.598;2022-11-27T01:42:48;22.13;;;8.93;;
23716;SDS011;22094;52.130;5.598;2022-11-27T01:45:14;21.40;;;9.10;;
23716;SDS011;22094;52.130;5.598;2022-11-27T01:47:52;26.17;;;9.65;;
23716;SDS011;22094;52.130;5.598;2022-11-27T01:50:30;19.05;;;9.27;;
23716;SDS011;22094;52.130;5.598;2022-11-27T01:53:04;24.15;;;10.05;;
23716;SDS011;22094;52.130;5.598;2022-11-27T01:55:35;22.70;;;9.43;;
23716;SDS011;22094;52.130;5.598;2022-11-27T01:58:06;31.70;;;9.52;;
23716;SDS011;22094;52.130;5.598;2022-11-27T02:00:52;24.10;;;9.35;;
23716;SDS011;22094;52.130;5.598;2022-11-27T02:03:18;24.17;;;9.13;;
23716;SDS011;22094;52.130;5.598;2022-11-27T02:05:43;19.88;;;9.75;;
23716;SDS011;22094;52.130;5.598;2022-11-27T02:08:10;22.60;;;8.90;;
23716;SDS011;22094;52.130;5.598;2022-11-27T02:10:42;18.27;;;9.15;;
23716;SDS011;22094;52.130;5.598;2022-11-27T02:13:17;24.88;;;8.80;;
23716;SDS011;22094;52.130;5.598;2022-11-27T02:15:51;24.02;;;8.20;;
23716;SDS011;22094;52.130;5.598;2022-11-27T02:18:44;18.17;;;8.43;;
23716;SDS011;22094;52.130;5.598;2022-11-27T02:21:19;23.60;;;7.70;;
23716;SDS011;22094;52.130;5.598;2022-11-27T02:23:57;21.73;;;7.90;;
23716;SDS011;22094;52.130;5.598;2022-11-27T02:29:08;21.65;;;7.60;;
23716;SDS011;22094;52.130;5.598;2022-11-27T02:31:46;20.65;;;7.78;;
23716;SDS011;22094;52.130;5.598;2022-11-27T02:34:24;20.38;;;7.25;;
23716;SDS011;22094;52.130;5.598;2022-11-27T02:39:38;20.20;;;7.53;;
23716;SDS011;22094;52.130;5.598;2022-11-27T02:42:18;17.48;;;7.38;;
23716;SDS011;22094;52.130;5.598;2022-11-27T02:44:56;19.65;;;7.90;;
23716;SDS011;22094;52.130;5.598;2022-11-27T02:47:26;19.65;;;8.13;;
23716;SDS011;22094;52.130;5.598;2022-11-27T02:49:52;17.85;;;7.85;;
23716;SDS011;22094;52.130;5.598;2022-11-27T02:52:21;20.08;;;8.52;;
23716;SDS011;22094;52.130;5.598;2022-11-27T02:54:48;15.27;;;7.13;;
23716;SDS011;22094;52.130;5.598;2022-11-27T02:57:18;17.67;;;7.57;;
23716;SDS011;22094;52.130;5.598;2022-11-27T02:59:46;19.42;;;7.45;;
23716;SDS011;22094;52.130;5.598;2022-11-27T03:02:15;19.67;;;7.57;;
23716;SDS011;22094;52.130;5.598;2022-11-27T03:04:45;19.52;;;8.20;;
23716;SDS011;22094;52.130;5.598;2022-11-27T03:07:17;18.08;;;7.00;;
23716;SDS011;22094;52.130;5.598;2022-11-27T03:09:57;16.25;;;7.03;;
23716;SDS011;22094;52.130;5.598;2022-11-27T03:12:28;18.23;;;7.22;;
23716;SDS011;22094;52.130;5.598;2022-11-27T03:14:54;20.00;;;8.07;;
23716;SDS011;22094;52.130;5.598;2022-11-27T03:17:39;18.40;;;7.20;;
23716;SDS011;22094;52.130;5.598;2022-11-27T03:20:19;16.33;;;7.38;;
23716;SDS011;22094;52.130;5.598;2022-11-27T03:22:49;14.98;;;7.18;;
23716;SDS011;22094;52.130;5.598;2022-11-27T03:25:20;17.63;;;7.68;;
23716;SDS011;22094;52.130;5.598;2022-11-27T03:27:47;14.38;;;7.68;;
23716;SDS011;22094;52.130;5.598;2022-11-27T03:30:20;16.73;;;8.30;;
23716;SDS011;22094;52.130;5.598;2022-11-27T03:32:46;23.30;;;7.78;;
23716;SDS011;22094;52.130;5.598;2022-11-27T03:35:12;19.48;;;7.20;;
23716;SDS011;22094;52.130;5.598;2022-11-27T03:37:41;19.35;;;7.60;;
23716;SDS011;22094;52.130;5.598;2022-11-27T03:40:07;20.25;;;7.85;;
23716;SDS011;22094;52.130;5.598;2022-11-27T03:45:16;18.75;;;7.28;;
23716;SDS011;22094;52.130;5.598;2022-11-27T03:47:58;23.08;;;7.57;;
23716;SDS011;22094;52.130;5.598;2022-11-27T03:50:50;16.50;;;6.68;;
23716;SDS011;22094;52.130;5.598;2022-11-27T03:53:54;16.42;;;7.00;;
23716;SDS011;22094;52.130;5.598;2022-11-27T03:59:09;16.90;;;6.70;;
23716;SDS011;22094;52.130;5.598;2022-11-27T04:01:39;15.10;;;6.60;;
23716;SDS011;22094;52.130;5.598;2022-11-27T04:04:05;13.20;;;6.03;;
23716;SDS011;22094;52.130;5.598;2022-11-27T04:06:31;13.15;;;5.63;;
23716;SDS011;22094;52.130;5.598;2022-11-27T04:08:57;18.55;;;5.97;;
23716;SDS011;22094;52.130;5.598;2022-11-27T04:11:22;15.55;;;5.53;;
23716;SDS011;22094;52.130;5.598;2022-11-27T04:13:48;13.23;;;5.70;;
23716;SDS011;22094;52.130;5.598;2022-11-27T04:16:16;10.80;;;5.50;;
23716;SDS011;22094;52.130;5.598;2022-11-27T04:18:42;12.55;;;5.47;;
23716;SDS011;22094;52.130;5.598;2022-11-27T04:21:08;14.98;;;5.90;;
23716;SDS011;22094;52.130;5.598;2022-11-27T04:23:33;11.73;;;5.03;;
23716;SDS011;22094;52.130;5.598;2022-11-27T04:25:59;11.38;;;5.32;;
23716;SDS011;22094;52.130;5.598;2022-11-27T04:28:24;13.15;;;5.30;;
23716;SDS011;22094;52.130;5.598;2022-11-27T04:30:51;12.95;;;4.72;;
23716;SDS011;22094;52.130;5.598;2022-11-27T04:33:18;11.90;;;5.03;;
23716;SDS011;22094;52.130;5.598;2022-11-27T04:35:43;12.57;;;4.95;;
23716;SDS011;22094;52.130;5.598;2022-11-27T04:38:10;13.23;;;5.70;;
23716;SDS011;22094;52.130;5.598;2022-11-27T04:40:36;12.80;;;5.20;;
23716;SDS011;22094;52.130;5.598;2022-11-27T04:43:01;10.52;;;4.95;;
23716;SDS011;22094;52.130;5.598;2022-11-27T04:45:27;13.20;;;5.13;;
23716;SDS011;22094;52.130;5.598;2022-11-27T04:47:52;12.82;;;5.90;;
23716;SDS011;22094;52.130;5.598;2022-11-27T04:50:18;10.65;;;4.80;;
23716;SDS011;22094;52.130;5.598;2022-11-27T04:52:43;13.80;;;5.07;;
23716;SDS011;22094;52.130;5.598;2022-11-27T04:55:09;15.52;;;4.93;;
23716;SDS011;22094;52.130;5.598;2022-11-27T04:57:34;9.07;;;4.88;;
23716;SDS011;22094;52.130;5.598;2022-11-27T05:00:00;15.05;;;4.95;;
23716;SDS011;22094;52.130;5.598;2022-11-27T05:02:28;9.07;;;4.55;;
23716;SDS011;22094;52.130;5.598;2022-11-27T05:04:53;10.85;;;4.88;;
23716;SDS011;22094;52.130;5.598;2022-11-27T05:07:19;12.10;;;4.75;;
23716;SDS011;22094;52.130;5.598;2022-11-27T05:09:44;14.18;;;4.85;;
23716;SDS011;22094;52.130;5.598;2022-11-27T05:12:10;13.70;;;4.68;;
23716;SDS011;22094;52.130;5.598;2022-11-27T05:14:35;9.10;;;4.32;;
23716;SDS011;22094;52.130;5.598;2022-11-27T05:17:01;12.75;;;4.88;;
23716;SDS011;22094;52.130;5.598;2022-11-27T05:19:27;11.93;;;4.72;;
23716;SDS011;22094;52.130;5.598;2022-11-27T05:21:54;14.80;;;5.28;;
23716;SDS011;22094;52.130;5.598;2022-11-27T05:24:20;10.25;;;4.68;;
23716;SDS011;22094;52.130;5.598;2022-11-27T05:26:48;12.90;;;5.03;;
23716;SDS011;22094;52.130;5.598;2022-11-27T05:29:13;13.93;;;5.30;;
23716;SDS011;22094;52.130;5.598;2022-11-27T05:31:40;12.35;;;4.35;;
23716;SDS011;22094;52.130;5.598;2022-11-27T05:34:06;14.13;;;4.55;;
23716;SDS011;22094;52.130;5.598;2022-11-27T05:36:34;12.10;;;4.88;;
23716;SDS011;22094;52.130;5.598;2022-11-27T05:39:00;8.85;;;4.35;;
23716;SDS011;22094;52.130;5.598;2022-11-27T05:41:27;12.23;;;4.07;;
23716;SDS011;22094;52.130;5.598;2022-11-27T05:43:53;8.65;;;4.38;;
23716;SDS011;22094;52.130;5.598;2022-11-27T05:46:19;15.13;;;4.70;;
23716;SDS011;22094;52.130;5.598;2022-11-27T05:48:46;11.07;;;4.05;;
23716;SDS011;22094;52.130;5.598;2022-11-27T05:51:12;8.70;;;4.55;;
23716;SDS011;22094;52.130;5.598;2022-11-27T05:53:38;9.95;;;4.00;;
23716;SDS011;22094;52.130;5.598;2022-11-27T05:56:05;10.32;;;4.28;;
23716;SDS011;22094;52.130;5.598;2022-11-27T05:58:32;11.98;;;4.30;;
23716;SDS011;22094;52.130;5.598;2022-11-27T06:00:59;10.75;;;4.07;;
23716;SDS011;22094;52.130;5.598;2022-11-27T06:03:24;8.10;;;3.95;;
23716;SDS011;22094;52.130;5.598;2022-11-27T06:05:50;12.52;;;4.75;;
23716;SDS011;22094;52.130;5.598;2022-11-27T06:08:16;8.57;;;4.20;;
23716;SDS011;22094;52.130;5.598;2022-11-27T06:10:42;12.18;;;4.53;;
23716;SDS011;22094;52.130;5.598;2022-11-27T06:13:08;9.05;;;4.10;;
23716;SDS011;22094;52.130;5.598;2022-11-27T06:15:34;9.68;;;4.32;;
23716;SDS011;22094;52.130;5.598;2022-11-27T06:18:00;13.23;;;4.40;;
23716;SDS011;22094;52.130;5.598;2022-11-27T06:20:26;9.43;;;4.53;;
23716;SDS011;22094;52.130;5.598;2022-11-27T06:22:51;12.25;;;4.35;;
23716;SDS011;22094;52.130;5.598;2022-11-27T06:25:17;10.48;;;4.85;;
23716;SDS011;22094;52.130;5.598;2022-11-27T06:27:43;10.00;;;4.72;;
23716;SDS011;22094;52.130;5.598;2022-11-27T06:30:08;9.73;;;4.40;;
23716;SDS011;22094;52.130;5.598;2022-11-27T06:32:34;9.80;;;4.65;;
23716;SDS011;22094;52.130;5.598;2022-11-27T06:35:00;12.40;;;5.38;;
23716;SDS011;22094;52.130;5.598;2022-11-27T06:37:25;13.68;;;5.18;;
23716;SDS011;22094;52.130;5.598;2022-11-27T06:39:51;9.60;;;4.82;;
23716;SDS011;22094;52.130;5.598;2022-11-27T06:42:16;12.38;;;5.45;;
23716;SDS011;22094;52.130;5.598;2022-11-27T06:44:42;14.48;;;5.15;;
23716;SDS011;22094;52.130;5.598;2022-11-27T06:47:08;9.20;;;4.90;;
23716;SDS011;22094;52.130;5.598;2022-11-27T06:49:33;11.38;;;4.93;;
23716;SDS011;22094;52.130;5.598;2022-11-27T06:51:59;12.23;;;4.90;;
23716;SDS011;22094;52.130;5.598;2022-11-27T06:54:25;14.18;;;4.93;;
23716;SDS011;22094;52.130;5.598;2022-11-27T06:56:51;10.82;;;5.68;;
23716;SDS011;22094;52.130;5.598;2022-11-27T06:59:16;12.10;;;5.32;;
23716;SDS011;22094;52.130;5.598;2022-11-27T07:01:42;11.40;;;4.85;;
23716;SDS011;22094;52.130;5.598;2022-11-27T07:04:12;14.68;;;5.13;;
23716;SDS011;22094;52.130;5.598;2022-11-27T07:06:38;12.73;;;5.43;;
23716;SDS011;22094;52.130;5.598;2022-11-27T07:09:05;11.68;;;5.35;;
23716;SDS011;22094;52.130;5.598;2022-11-27T07:11:31;8.80;;;4.97;;
23716;SDS011;22094;52.130;5.598;2022-11-27T07:13:58;11.55;;;5.63;;
23716;SDS011;22094;52.130;5.598;2022-11-27T07:16:26;10.93;;;5.10;;
23716;SDS011;22094;52.130;5.598;2022-11-27T07:18:54;13.75;;;5.68;;
23716;SDS011;22094;52.130;5.598;2022-11-27T07:21:22;13.48;;;6.07;;
23716;SDS011;22094;52.130;5.598;2022-11-27T07:23:48;13.45;;;5.97;;
23716;SDS011;22094;52.130;5.598;2022-11-27T07:26:21;14.88;;;6.07;;
23716;SDS011;22094;52.130;5.598;2022-11-27T07:28:52;13.73;;;6.05;;
23716;SDS011;22094;52.130;5.598;2022-11-27T07:31:19;14.43;;;6.28;;
23716;SDS011;22094;52.130;5.598;2022-11-27T07:33:46;13.57;;;5.97;;
23716;SDS011;22094;52.130;5.598;2022-11-27T07:36:13;14.25;;;6.07;;
23716;SDS011;22094;52.130;5.598;2022-11-27T07:38:43;11.95;;;6.57;;
23716;SDS011;22094;52.130;5.598;2022-11-27T07:41:10;15.18;;;6.80;;
23716;SDS011;22094;52.130;5.598;2022-11-27T07:43:36;11.55;;;6.32;;
23716;SDS011;22094;52.130;5.598;2022-11-27T07:46:02;14.48;;;6.75;;
23716;SDS011;22094;52.130;5.598;2022-11-27T07:48:29;16.50;;;8.30;;
23716;SDS011;22094;52.130;5.598;2022-11-27T07:50:55;18.70;;;7.53;;
23716;SDS011;22094;52.130;5.598;2022-11-27T07:53:20;16.73;;;7.53;;
23716;SDS011;22094;52.130;5.598;2022-11-27T07:55:46;19.05;;;8.05;;
23716;SDS011;22094;52.130;5.598;2022-11-27T07:58:11;18.02;;;7.43;;
23716;SDS011;22094;52.130;5.598;2022-11-27T08:00:37;14.02;;;7.15;;
23716;SDS011;22094;52.130;5.598;2022-11-27T08:03:02;15.82;;;8.07;;
23716;SDS011;22094;52.130;5.598;2022-11-27T08:05:28;16.90;;;8.20;;
23716;SDS011;22094;52.130;5.598;2022-11-27T08:07:54;15.80;;;6.78;;
23716;SDS011;22094;52.130;5.598;2022-11-27T08:10:20;14.73;;;7.50;;
23716;SDS011;22094;52.130;5.598;2022-11-27T08:12:45;15.98;;;7.50;;
23716;SDS011;22094;52.130;5.598;2022-11-27T08:15:11;14.45;;;7.35;;
23716;SDS011;22094;52.130;5.598;2022-11-27T08:17:37;15.57;;;8.68;;
23716;SDS011;22094;52.130;5.598;2022-11-27T08:20:03;19.30;;;7.97;;
23716;SDS011;22094;52.130;5.598;2022-11-27T08:22:30;18.08;;;8.45;;
23716;SDS011;22094;52.130;5.598;2022-11-27T08:24:55;16.88;;;7.95;;
23716;SDS011;22094;52.130;5.598;2022-11-27T08:27:21;16.40;;;8.48;;
23716;SDS011;22094;52.130;5.598;2022-11-27T08:29:46;17.95;;;8.27;;
23716;SDS011;22094;52.130;5.598;2022-11-27T08:32:12;20.10;;;8.75;;
23716;SDS011;22094;52.130;5.598;2022-11-27T08:34:38;16.13;;;8.38;;
23716;SDS011;22094;52.130;5.598;2022-11-27T08:37:04;18.02;;;8.68;;
23716;SDS011;22094;52.130;5.598;2022-11-27T08:39:30;17.02;;;9.20;;
23716;SDS011;22094;52.130;5.598;2022-11-27T08:41:56;15.23;;;8.48;;
23716;SDS011;22094;52.130;5.598;2022-11-27T08:44:21;15.90;;;8.75;;
23716;SDS011;22094;52.130;5.598;2022-11-27T08:46:47;17.50;;;8.38;;
23716;SDS011;22094;52.130;5.598;2022-11-27T08:49:12;17.90;;;8.82;;
23716;SDS011;22094;52.130;5.598;2022-11-27T08:51:38;16.92;;;8.60;;
23716;SDS011;22094;52.130;5.598;2022-11-27T08:54:04;18.27;;;8.50;;
23716;SDS011;22094;52.130;5.598;2022-11-27T08:56:29;14.70;;;8.48;;
23716;SDS011;22094;52.130;5.598;2022-11-27T08:58:55;13.27;;;8.60;;
23716;SDS011;22094;52.130;5.598;2022-11-27T09:01:22;15.27;;;8.02;;
23716;SDS011;22094;52.130;5.598;2022-11-27T09:03:49;16.33;;;9.30;;
23716;SDS011;22094;52.130;5.598;2022-11-27T09:06:17;16.75;;;9.00;;
23716;SDS011;22094;52.130;5.598;2022-11-27T09:08:45;15.15;;;9.07;;
23716;SDS011;22094;52.130;5.598;2022-11-27T09:11:12;16.48;;;9.57;;
23716;SDS011;22094;52.130;5.598;2022-11-27T09:13:39;17.17;;;10.05;;
23716;SDS011;22094;52.130;5.598;2022-11-27T09:16:08;17.20;;;9.30;;
23716;SDS011;22094;52.130;5.598;2022-11-27T09:18:36;18.25;;;9.27;;
23716;SDS011;22094;52.130;5.598;2022-11-27T09:21:03;17.05;;;10.05;;
23716;SDS011;22094;52.130;5.598;2022-11-27T09:23:30;14.82;;;9.18;;
23716;SDS011;22094;52.130;5.598;2022-11-27T09:25:57;15.70;;;9.52;;
23716;SDS011;22094;52.130;5.598;2022-11-27T09:28:24;18.30;;;10.20;;
23716;SDS011;22094;52.130;5.598;2022-11-27T09:30:53;17.48;;;9.90;;
23716;SDS011;22094;52.130;5.598;2022-11-27T09:33:23;16.00;;;9.82;;
23716;SDS011;22094;52.130;5.598;2022-11-27T09:35:49;14.10;;;9.52;;
23716;SDS011;22094;52.130;5.598;2022-11-27T09:38:15;19.52;;;10.13;;
23716;SDS011;22094;52.130;5.598;2022-11-27T09:40:52;15.90;;;9.32;;
23716;SDS011;22094;52.130;5.598;2022-11-27T09:43:26;15.95;;;9.15;;
23716;SDS011;22094;52.130;5.598;2022-11-27T09:45:56;16.02;;;9.38;;
23716;SDS011;22094;52.130;5.598;2022-11-27T09:48:32;17.52;;;9.80;;
23716;SDS011;22094;52.130;5.598;2022-11-27T09:51:01;15.50;;;8.65;;
23716;SDS011;22094;52.130;5.598;2022-11-27T09:53:32;19.63;;;9.63;;
23716;SDS011;22094;52.130;5.598;2022-11-27T09:56:07;15.15;;;8.88;;
23716;SDS011;22094;52.130;5.598;2022-11-27T09:58:39;15.98;;;8.65;;
23716;SDS011;22094;52.130;5.598;2022-11-27T10:01:14;19.92;;;9.63;;
23716;SDS011;22094;52.130;5.598;2022-11-27T10:03:43;15.93;;;8.70;;
23716;SDS011;22094;52.130;5.598;2022-11-27T10:06:21;16.55;;;9.18;;
23716;SDS011;22094;52.130;5.598;2022-11-27T10:09:16;17.00;;;9.18;;
23716;SDS011;22094;52.130;5.598;2022-11-27T10:17:57;18.42;;;9.27;;
23716;SDS011;22094;52.130;5.598;2022-11-27T10:20:48;14.98;;;9.27;;
23716;SDS011;22094;52.130;5.598;2022-11-27T10:23:37;14.75;;;8.57;;
23716;SDS011;22094;52.130;5.598;2022-11-27T10:26:27;15.38;;;9.07;;
23716;SDS011;22094;52.130;5.598;2022-11-27T10:29:08;15.90;;;9.48;;
23716;SDS011;22094;52.130;5.598;2022-11-27T10:31:51;14.27;;;9.45;;
23716;SDS011;22094;52.130;5.598;2022-11-27T10:42:43;26.58;;;9.88;;
23716;SDS011;22094;52.130;5.598;2022-11-27T10:45:23;14.05;;;9.40;;
23716;SDS011;22094;52.130;5.598;2022-11-27T10:48:02;15.45;;;9.10;;
23716;SDS011;22094;52.130;5.598;2022-11-27T10:50:27;16.45;;;10.30;;
23716;SDS011;22094;52.130;5.598;2022-11-27T10:52:58;20.83;;;10.10;;
23716;SDS011;22094;52.130;5.598;2022-11-27T10:58:02;16.38;;;9.80;;
23716;SDS011;22094;52.130;5.598;2022-11-27T11:00:30;17.05;;;9.93;;
23716;SDS011;22094;52.130;5.598;2022-11-27T11:02:59;12.90;;;8.90;;
23716;SDS011;22094;52.130;5.598;2022-11-27T11:05:27;14.70;;;9.35;;
23716;SDS011;22094;52.130;5.598;2022-11-27T11:07:54;17.85;;;9.40;;
23716;SDS011;22094;52.130;5.598;2022-11-27T11:10:32;12.73;;;8.82;;
23716;SDS011;22094;52.130;5.598;2022-11-27T11:13:14;16.08;;;9.38;;
23716;SDS011;22094;52.130;5.598;2022-11-27T11:15:46;14.20;;;9.23;;
23716;SDS011;22094;52.130;5.598;2022-11-27T11:18:21;14.90;;;8.88;;
23716;SDS011;22094;52.130;5.598;2022-11-27T11:20:49;15.07;;;9.27;;
23716;SDS011;22094;52.130;5.598;2022-11-27T11:23:30;14.23;;;8.25;;
23716;SDS011;22094;52.130;5.598;2022-11-27T11:25:58;16.85;;;9.25;;
23716;SDS011;22094;52.130;5.598;2022-11-27T11:28:26;15.10;;;9.30;;
23716;SDS011;22094;52.130;5.598;2022-11-27T11:30:57;16.77;;;9.10;;
23716;SDS011;22094;52.130;5.598;2022-11-27T11:33:25;14.73;;;8.95;;
23716;SDS011;22094;52.130;5.598;2022-11-27T11:35:53;16.50;;;9.45;;
23716;SDS011;22094;52.130;5.598;2022-11-27T11:38:27;15.07;;;9.57;;
23716;SDS011;22094;52.130;5.598;2022-11-27T11:41:02;15.82;;;9.55;;
23716;SDS011;22094;52.130;5.598;2022-11-27T11:43:31;26.10;;;16.58;;
23716;SDS011;22094;52.130;5.598;2022-11-27T11:46:18;16.38;;;13.13;;
23716;SDS011;22094;52.130;5.598;2022-11-27T11:48:53;15.80;;;10.00;;
23716;SDS011;22094;52.130;5.598;2022-11-27T11:51:31;14.05;;;9.35;;
23716;SDS011;22094;52.130;5.598;2022-11-27T11:54:35;18.45;;;10.50;;
23716;SDS011;22094;52.130;5.598;2022-11-27T11:57:03;15.27;;;9.27;;
23716;SDS011;22094;52.130;5.598;2022-11-27T12:00:01;18.35;;;9.82;;
23716;SDS011;22094;52.130;5.598;2022-11-27T12:11:04;16.52;;;9.05;;
23716;SDS011;22094;52.130;5.598;2022-11-27T12:13:38;15.65;;;9.27;;
23716;SDS011;22094;52.130;5.598;2022-11-27T12:21:50;17.45;;;8.38;;
23716;SDS011;22094;52.130;5.598;2022-11-27T12:24:34;12.10;;;8.95;;
23716;SDS011;22094;52.130;5.598;2022-11-27T12:27:12;11.82;;;8.18;;
23716;SDS011;22094;52.130;5.598;2022-11-27T12:30:02;14.43;;;8.32;;
23716;SDS011;22094;52.130;5.598;2022-11-27T12:35:29;13.10;;;8.60;;
23716;SDS011;22094;52.130;5.598;2022-11-27T12:40:47;13.90;;;8.18;;
23716;SDS011;22094;52.130;5.598;2022-11-27T12:43:34;11.60;;;8.20;;
23716;SDS011;22094;52.130;5.598;2022-11-27T12:46:12;13.07;;;8.57;;
23716;SDS011;22094;52.130;5.598;2022-11-27T12:48:52;12.23;;;8.25;;
23716;SDS011;22094;52.130;5.598;2022-11-27T12:51:24;13.90;;;8.80;;
23716;SDS011;22094;52.130;5.598;2022-11-27T12:53:54;11.50;;;8.18;;
23716;SDS011;22094;52.130;5.598;2022-11-27T12:56:40;12.55;;;8.18;;
23716;SDS011;22094;52.130;5.598;2022-11-27T13:05:00;12.43;;;8.23;;
23716;SDS011;22094;52.130;5.598;2022-11-27T13:07:36;13.57;;;8.95;;
23716;SDS011;22094;52.130;5.598;2022-11-27T13:10:21;13.88;;;9.05;;
23716;SDS011;22094;52.130;5.598;2022-11-27T13:15:43;14.25;;;8.55;;
23716;SDS011;22094;52.130;5.598;2022-11-27T13:18:22;14.38;;;9.20;;
23716;SDS011;22094;52.130;5.598;2022-11-27T13:21:14;13.70;;;9.63;;
23716;SDS011;22094;52.130;5.598;2022-11-27T13:23:44;13.35;;;8.90;;
23716;SDS011;22094;52.130;5.598;2022-11-27T13:26:17;16.40;;;11.32;;
23716;SDS011;22094;52.130;5.598;2022-11-27T13:28:56;43.60;;;24.23;;
23716;SDS011;22094;52.130;5.598;2022-11-27T13:31:28;19.52;;;11.27;;
23716;SDS011;22094;52.130;5.598;2022-11-27T13:33:58;15.73;;;9.68;;
23716;SDS011;22094;52.130;5.598;2022-11-27T13:36:33;15.27;;;10.13;;
23716;SDS011;22094;52.130;5.598;2022-11-27T13:39:05;15.75;;;9.48;;
23716;SDS011;22094;52.130;5.598;2022-11-27T13:41:36;12.30;;;8.75;;
23716;SDS011;22094;52.130;5.598;2022-11-27T13:44:04;14.98;;;9.70;;
23716;SDS011;22094;52.130;5.598;2022-11-27T13:46:51;13.52;;;9.55;;
23716;SDS011;22094;52.130;5.598;2022-11-27T13:49:25;14.05;;;9.77;;
23716;SDS011;22094;52.130;5.598;2022-11-27T13:52:02;15.95;;;11.07;;
23716;SDS011;22094;52.130;5.598;2022-11-27T13:54:36;15.60;;;10.63;;
23716;SDS011;22094;52.130;5.598;2022-11-27T13:57:12;17.45;;;10.38;;
23716;SDS011;22094;52.130;5.598;2022-11-27T13:59:40;15.20;;;10.15;;
23716;SDS011;22094;52.130;5.598;2022-11-27T14:02:18;14.05;;;8.93;;
23716;SDS011;22094;52.130;5.598;2022-11-27T14:04:47;14.85;;;10.15;;
23716;SDS011;22094;52.130;5.598;2022-11-27T14:07:14;14.68;;;9.75;;
23716;SDS011;22094;52.130;5.598;2022-11-27T14:09:43;13.60;;;9.80;;
23716;SDS011;22094;52.130;5.598;2022-11-27T14:14:42;14.90;;;11.02;;
23716;SDS011;22094;52.130;5.598;2022-11-27T14:17:20;15.40;;;9.63;;
23716;SDS011;22094;52.130;5.598;2022-11-27T14:19:57;15.48;;;10.00;;
23716;SDS011;22094;52.130;5.598;2022-11-27T14:25:23;16.33;;;9.52;;
23716;SDS011;22094;52.130;5.598;2022-11-27T14:27:55;14.20;;;9.45;;
23716;SDS011;22094;52.130;5.598;2022-11-27T14:30:49;13.25;;;9.32;;
23716;SDS011;22094;52.130;5.598;2022-11-27T14:33:23;13.40;;;8.65;;
23716;SDS011;22094;52.130;5.598;2022-11-27T14:35:50;15.77;;;10.02;;
23716;SDS011;22094;52.130;5.598;2022-11-27T14:38:24;13.63;;;8.65;;
23716;SDS011;22094;52.130;5.598;2022-11-27T14:40:52;11.82;;;8.55;;
23716;SDS011;22094;52.130;5.598;2022-11-27T14:43:20;13.50;;;8.20;;
23716;SDS011;22094;52.130;5.598;2022-11-27T14:45:54;13.55;;;8.23;;
23716;SDS011;22094;52.130;5.598;2022-11-27T14:48:25;14.43;;;8.32;;
23716;SDS011;22094;52.130;5.598;2022-11-27T14:50:55;11.32;;;7.90;;
23716;SDS011;22094;52.130;5.598;2022-11-27T14:53:22;14.65;;;8.23;;
23716;SDS011;22094;52.130;5.598;2022-11-27T14:55:51;11.57;;;7.90;;
23716;SDS011;22094;52.130;5.598;2022-11-27T14:58:21;12.93;;;8.07;;
23716;SDS011;22094;52.130;5.598;2022-11-27T15:00:50;11.57;;;7.93;;
23716;SDS011;22094;52.130;5.598;2022-11-27T15:03:18;9.32;;;7.85;;
23716;SDS011;22094;52.130;5.598;2022-11-27T15:05:51;11.75;;;7.85;;
23716;SDS011;22094;52.130;5.598;2022-11-27T15:08:20;14.98;;;10.48;;
23716;SDS011;22094;52.130;5.598;2022-11-27T15:10:46;12.85;;;8.52;;
23716;SDS011;22094;52.130;5.598;2022-11-27T15:13:31;11.90;;;8.52;;
23716;SDS011;22094;52.130;5.598;2022-11-27T15:18:57;12.50;;;8.18;;
23716;SDS011;22094;52.130;5.598;2022-11-27T15:21:27;14.40;;;8.93;;
23716;SDS011;22094;52.130;5.598;2022-11-27T15:23:55;9.20;;;7.75;;
23716;SDS011;22094;52.130;5.598;2022-11-27T15:26:27;14.07;;;8.52;;
23716;SDS011;22094;52.130;5.598;2022-11-27T15:28:58;14.43;;;8.88;;
23716;SDS011;22094;52.130;5.598;2022-11-27T15:31:31;15.73;;;9.80;;
23716;SDS011;22094;52.130;5.598;2022-11-27T15:34:21;14.30;;;9.23;;
23716;SDS011;22094;52.130;5.598;2022-11-27T15:36:50;13.95;;;10.60;;
23716;SDS011;22094;52.130;5.598;2022-11-27T15:39:21;15.48;;;10.68;;
23716;SDS011;22094;52.130;5.598;2022-11-27T15:41:54;13.85;;;9.68;;
23716;SDS011;22094;52.130;5.598;2022-11-27T15:44:25;16.38;;;10.32;;
23716;SDS011;22094;52.130;5.598;2022-11-27T15:46:52;13.52;;;8.88;;
23716;SDS011;22094;52.130;5.598;2022-11-27T15:49:20;15.80;;;9.90;;
23716;SDS011;22094;52.130;5.598;2022-11-27T15:51:47;13.35;;;8.65;;
23716;SDS011;22094;52.130;5.598;2022-11-27T15:54:13;11.95;;;8.70;;
23716;SDS011;22094;52.130;5.598;2022-11-27T15:56:38;14.70;;;9.20;;